createdAt,value
2022-09-20T00:00:06.268Z,11.66
2022-09-20T00:02:32.787Z,11.60
2022-09-20T00:04:59.268Z,11.61
2022-09-20T00:07:25.874Z,11.58
2022-09-20T00:09:52.335Z,11.56
2022-09-20T00:12:18.906Z,11.56
2022-09-20T00:14:45.349Z,11.54
2022-09-20T00:17:11.946Z,11.53
2022-09-20T00:19:38.671Z,11.51
2022-09-20T00:22:05.169Z,11.50
2022-09-20T00:24:31.790Z,11.49
2022-09-20T00:26:58.338Z,11.47
2022-09-20T00:29:24.896Z,11.47
2022-09-20T00:31:51.492Z,11.43
2022-09-20T00:34:18.138Z,11.42
2022-09-20T00:36:45.009Z,11.42
2022-09-20T00:39:13.694Z,11.41
2022-09-20T00:41:40.329Z,11.41
2022-09-20T00:44:41.968Z,11.36
2022-09-20T00:47:31.488Z,11.34
2022-09-20T00:50:31.766Z,11.33
2022-09-20T00:53:04.331Z,11.33
2022-09-20T00:55:32.025Z,11.33
2022-09-20T00:57:59.554Z,11.33
2022-09-20T01:00:26.800Z,11.33
2022-09-20T01:02:59.107Z,11.33
2022-09-20T01:05:26.859Z,11.34
2022-09-20T01:07:54.597Z,11.35
2022-09-20T01:10:21.126Z,11.36
2022-09-20T01:12:50.383Z,11.37
2022-09-20T01:15:17.724Z,11.37
2022-09-20T01:17:48.678Z,11.37
2022-09-20T01:20:25.667Z,11.38
2022-09-20T01:23:13.285Z,11.38
2022-09-20T01:26:04.072Z,11.37
2022-09-20T01:28:31.238Z,11.39
2022-09-20T01:31:21.021Z,11.38
2022-09-20T01:33:58.248Z,11.40
2022-09-20T01:36:33.382Z,11.41
2022-09-20T01:39:05.513Z,11.44
2022-09-20T01:41:53.384Z,11.46
2022-09-20T01:44:52.002Z,11.37
2022-09-20T01:47:41.850Z,11.46
2022-09-20T01:50:33.581Z,11.48
2022-09-20T01:53:16.727Z,11.50
2022-09-20T01:56:01.570Z,11.51
2022-09-20T01:58:46.941Z,11.51
2022-09-20T02:01:36.600Z,11.51
2022-09-20T02:04:33.863Z,11.51
2022-09-20T02:07:20.095Z,11.51
2022-09-20T02:10:07.292Z,11.52
2022-09-20T02:12:56.809Z,11.50
2022-09-20T02:15:26.319Z,11.53
2022-09-20T02:18:30.184Z,11.51
2022-09-20T02:20:59.260Z,11.52
2022-09-20T02:23:50.807Z,11.51
2022-09-20T02:26:24.662Z,11.52
2022-09-20T02:29:14.887Z,11.52
2022-09-20T02:32:00.448Z,11.52
2022-09-20T02:34:45.606Z,11.52
2022-09-20T02:37:30.695Z,11.54
2022-09-20T02:40:22.114Z,11.52
2022-09-20T02:42:54.604Z,11.52
2022-09-20T02:45:28.897Z,11.53
2022-09-20T02:48:03.015Z,11.53
2022-09-20T02:51:03.306Z,11.52
2022-09-20T02:53:40.938Z,11.54
2022-09-20T02:56:41.403Z,11.53
2022-09-20T02:59:40.662Z,11.54
2022-09-20T03:02:22.656Z,11.56
2022-09-20T03:04:49.311Z,11.57
2022-09-20T03:07:37.114Z,11.58
2022-09-20T03:10:10.352Z,11.56
2022-09-20T03:13:13.803Z,11.55
2022-09-20T03:16:08.478Z,11.55
2022-09-20T03:19:30.532Z,11.54
2022-09-20T03:22:28.895Z,11.54
2022-09-20T03:25:20.165Z,11.55
2022-09-20T03:28:09.413Z,11.51
2022-09-20T03:30:52.549Z,11.52
2022-09-20T03:33:51.598Z,11.49
2022-09-20T03:36:45.619Z,11.52
2022-09-20T03:39:21.258Z,11.50
2022-09-20T03:42:16.639Z,11.47
2022-09-20T03:44:46.076Z,11.48
2022-09-20T03:47:34.433Z,11.46
2022-09-20T03:50:35.734Z,11.44
2022-09-20T03:53:31.302Z,11.45
2022-09-20T03:56:21.821Z,11.43
2022-09-20T03:58:55.936Z,11.45
2022-09-20T04:01:37.625Z,11.44
2022-09-20T04:04:04.397Z,11.43
2022-09-20T04:06:49.838Z,11.45
2022-09-20T04:09:33.827Z,11.46
2022-09-20T04:12:06.119Z,11.46
2022-09-20T04:14:57.547Z,11.44
2022-09-20T04:18:14.814Z,11.42
2022-09-20T04:20:50.115Z,11.44
2022-09-20T04:23:53.925Z,11.44
2022-09-20T04:26:29.450Z,11.43
2022-09-20T04:29:23.198Z,11.43
2022-09-20T04:31:59.283Z,11.42
2022-09-20T04:34:33.292Z,11.41
2022-09-20T04:37:02.765Z,11.40
2022-09-20T04:39:32.118Z,11.40
2022-09-20T04:42:14.250Z,11.38
2022-09-20T04:44:51.783Z,11.39
2022-09-20T04:47:42.485Z,11.35
2022-09-20T04:50:20.967Z,11.35
2022-09-20T04:53:24.862Z,11.34
2022-09-20T04:55:56.463Z,11.33
2022-09-20T04:58:29.013Z,11.34
2022-09-20T05:00:58.781Z,11.35
2022-09-20T05:03:53.135Z,11.32
2022-09-20T05:07:01.613Z,11.33
2022-09-20T05:10:14.690Z,11.32
2022-09-20T05:13:09.271Z,11.31
2022-09-20T05:15:44.207Z,11.30
2022-09-20T05:18:29.547Z,11.31
2022-09-20T05:21:22.806Z,11.28
2022-09-20T05:23:55.340Z,11.27
2022-09-20T05:27:03.903Z,11.25
2022-09-20T05:29:55.516Z,11.23
2022-09-20T05:32:51.989Z,11.23
2022-09-20T05:35:39.440Z,11.25
2022-09-20T05:38:22.086Z,11.24
2022-09-20T05:41:22.769Z,11.24
2022-09-20T05:44:01.976Z,11.24
2022-09-20T05:46:34.551Z,11.24
2022-09-20T05:49:25.867Z,11.24
2022-09-20T05:51:59.919Z,11.28
2022-09-20T05:54:43.650Z,11.30
2022-09-20T05:57:32.194Z,11.31
2022-09-20T06:00:03.232Z,11.36
2022-09-20T06:03:15.140Z,11.37
2022-09-20T06:06:06.973Z,11.40
2022-09-20T06:08:48.208Z,11.44
2022-09-20T06:11:52.366Z,11.48
2022-09-20T06:14:40.521Z,11.53
2022-09-20T06:17:30.991Z,11.57
2022-09-20T06:20:04.799Z,11.61
2022-09-20T06:22:34.148Z,11.68
2022-09-20T06:25:09.769Z,11.70
2022-09-20T06:27:53.802Z,11.71
2022-09-20T06:30:34.296Z,11.74
2022-09-20T06:33:13.893Z,11.76
2022-09-20T06:35:46.382Z,11.79
2022-09-20T06:38:41.090Z,11.79
2022-09-20T06:41:10.648Z,11.82
2022-09-20T06:43:37.148Z,11.83
2022-09-20T06:46:03.758Z,11.84
2022-09-20T06:48:30.252Z,11.85
2022-09-20T06:50:56.871Z,11.86
2022-09-20T06:53:29.473Z,11.87
2022-09-20T06:55:57.336Z,11.86
2022-09-20T06:58:23.780Z,11.84
2022-09-20T07:00:50.342Z,11.81
2022-09-20T07:03:16.866Z,11.76
2022-09-20T07:05:43.452Z,11.73
2022-09-20T07:08:09.930Z,11.70
2022-09-20T07:10:36.486Z,11.66
2022-09-20T07:13:03.264Z,11.62
2022-09-20T07:15:32.286Z,11.60
2022-09-20T07:17:59.338Z,11.57
2022-09-20T07:20:26.228Z,11.58
2022-09-20T07:22:52.860Z,11.59
2022-09-20T07:25:20.271Z,11.63
2022-09-20T07:27:49.052Z,11.65
2022-09-20T07:30:15.692Z,11.69
2022-09-20T07:32:42.231Z,11.71
2022-09-20T07:35:10.287Z,11.72
2022-09-20T07:37:37.388Z,11.64
2022-09-20T07:40:05.498Z,11.72
2022-09-20T07:42:32.134Z,11.66
2022-09-20T07:45:05.143Z,11.74
2022-09-20T07:47:31.695Z,11.74
2022-09-20T07:49:58.409Z,11.76
2022-09-20T07:52:25.013Z,11.77
2022-09-20T07:54:51.687Z,11.80
2022-09-20T07:57:18.200Z,11.85
2022-09-20T07:59:44.719Z,11.92
2022-09-20T08:02:15.328Z,12.03
2022-09-20T08:04:42.732Z,12.12
2022-09-20T08:07:09.575Z,12.22
2022-09-20T08:09:36.100Z,12.34
2022-09-20T08:14:49.866Z,12.50
2022-09-20T08:17:16.360Z,12.54
2022-09-20T08:19:42.850Z,12.55
2022-09-20T08:22:09.464Z,12.52
2022-09-20T08:24:36.173Z,12.48
2022-09-20T08:27:02.662Z,12.46
2022-09-20T08:29:29.236Z,12.42
2022-09-20T08:31:55.813Z,12.39
2022-09-20T08:34:22.396Z,12.37
2022-09-20T08:36:48.862Z,12.38
2022-09-20T08:42:17.224Z,12.32
2022-09-20T08:44:57.829Z,12.31
2022-09-20T08:47:46.491Z,12.31
2022-09-20T08:50:17.546Z,12.32
2022-09-20T08:52:47.165Z,12.32
2022-09-20T08:55:39.955Z,12.32
2022-09-20T08:58:11.029Z,12.38
2022-09-20T09:00:39.773Z,12.45
2022-09-20T09:03:15.495Z,12.53
2022-09-20T09:05:55.447Z,12.59
2022-09-20T09:08:25.749Z,12.66
2022-09-20T09:10:55.701Z,12.72
2022-09-20T09:14:01.225Z,12.78
2022-09-20T09:16:35.509Z,12.83
2022-09-20T09:19:33.959Z,12.86
2022-09-20T09:22:03.314Z,12.91
2022-09-20T09:24:29.854Z,12.94
2022-09-20T09:27:07.036Z,12.98
2022-09-20T09:29:35.009Z,13.03
2022-09-20T09:32:18.644Z,13.00
2022-09-20T09:34:45.352Z,13.17
2022-09-20T09:37:30.108Z,13.27
2022-09-20T09:40:26.493Z,13.34
2022-09-20T09:42:55.954Z,13.41
2022-09-20T09:45:28.674Z,13.43
2022-09-20T09:47:56.609Z,13.50
2022-09-20T09:50:26.883Z,13.53
2022-09-20T09:53:09.690Z,13.58
2022-09-20T09:55:52.550Z,13.64
2022-09-20T09:58:57.857Z,13.65
2022-09-20T10:01:57.954Z,13.70
2022-09-20T10:04:38.079Z,13.74
2022-09-20T10:07:33.579Z,13.78
2022-09-20T10:10:27.610Z,13.82
2022-09-20T10:13:23.184Z,13.94
2022-09-20T10:16:20.654Z,14.07
2022-09-20T10:19:24.884Z,14.23
2022-09-20T10:22:00.646Z,14.38
2022-09-20T10:24:58.904Z,14.49
2022-09-20T10:28:17.516Z,14.44
2022-09-20T10:30:46.823Z,14.42
2022-09-20T10:33:38.263Z,14.36
2022-09-20T10:36:20.085Z,14.30
2022-09-20T10:39:02.139Z,14.33
2022-09-20T10:41:54.427Z,14.33
2022-09-20T10:45:03.611Z,14.37
2022-09-20T10:47:39.287Z,14.46
2022-09-20T10:50:36.431Z,14.52
2022-09-20T10:53:23.907Z,14.58
2022-09-20T10:56:13.600Z,14.62
2022-09-20T10:58:59.058Z,14.68
2022-09-20T11:01:37.235Z,14.68
2022-09-20T11:04:15.556Z,14.68
2022-09-20T11:07:08.311Z,14.65
2022-09-20T11:09:40.532Z,14.64
2022-09-20T11:12:16.413Z,14.64
2022-09-20T11:14:57.730Z,14.62
2022-09-20T11:17:26.156Z,14.65
2022-09-20T11:20:09.914Z,14.71
2022-09-20T11:22:55.623Z,14.73
2022-09-20T11:25:31.148Z,14.74
2022-09-20T11:28:05.352Z,14.69
2022-09-20T11:30:35.996Z,14.63
2022-09-20T11:33:21.770Z,14.60
2022-09-20T11:36:14.037Z,14.51
2022-09-20T11:38:53.080Z,14.48
2022-09-20T11:41:32.024Z,14.47
2022-09-20T11:44:10.679Z,14.45
2022-09-20T11:46:46.296Z,14.49
2022-09-20T11:49:19.662Z,14.54
2022-09-20T11:51:52.808Z,14.59
2022-09-20T11:54:28.291Z,14.63
2022-09-20T11:56:57.496Z,14.68
2022-09-20T11:59:50.080Z,14.77
2022-09-20T12:02:34.698Z,14.87
2022-09-20T12:05:03.718Z,15.06
2022-09-20T12:07:36.887Z,15.20
2022-09-20T12:10:21.495Z,15.40
2022-09-20T12:12:54.864Z,15.56
2022-09-20T12:15:21.371Z,15.69
2022-09-20T12:17:47.909Z,15.79
2022-09-20T12:20:32.723Z,15.87
2022-09-20T12:23:36.710Z,15.99
2022-09-20T12:26:04.920Z,16.05
2022-09-20T12:28:34.831Z,16.08
2022-09-20T12:31:30.332Z,16.14
2022-09-20T12:34:00.977Z,16.19
2022-09-20T12:36:30.477Z,16.24
2022-09-20T12:39:00.840Z,16.30
2022-09-20T12:41:28.957Z,16.33
2022-09-20T12:44:02.776Z,16.35
2022-09-20T12:46:35.502Z,16.49
2022-09-20T12:49:22.873Z,16.47
2022-09-20T12:51:51.131Z,16.50
2022-09-20T12:54:17.712Z,16.52
2022-09-20T12:56:44.441Z,16.52
2022-09-20T12:59:25.463Z,16.53
2022-09-20T13:01:52.077Z,16.56
2022-09-20T13:04:50.863Z,16.52
2022-09-20T13:07:34.421Z,16.46
2022-09-20T13:10:25.978Z,16.45
2022-09-20T13:12:58.164Z,16.47
2022-09-20T13:15:25.117Z,16.48
2022-09-20T13:17:54.939Z,16.53
2022-09-20T13:20:25.344Z,16.55
2022-09-20T13:22:58.228Z,16.61
2022-09-20T13:25:27.103Z,16.61
2022-09-20T13:28:07.387Z,16.63
2022-09-20T13:30:33.952Z,16.61
2022-09-20T13:33:23.268Z,16.55
2022-09-20T13:35:56.183Z,16.56
2022-09-20T13:38:26.840Z,16.55
2022-09-20T13:41:03.631Z,16.54
2022-09-20T13:43:32.377Z,16.52
2022-09-20T13:46:06.418Z,16.50
2022-09-20T13:48:32.970Z,16.50
2022-09-20T13:50:59.543Z,16.50
2022-09-20T13:53:40.993Z,16.51
2022-09-20T13:56:20.626Z,16.50
2022-09-20T13:58:48.868Z,16.55
2022-09-20T14:01:29.023Z,16.51
2022-09-20T14:04:04.982Z,16.48
2022-09-20T14:06:32.359Z,16.55
2022-09-20T14:09:02.599Z,16.55
2022-09-20T14:11:30.914Z,16.56
2022-09-20T14:14:02.919Z,16.52
2022-09-20T14:16:37.966Z,16.55
2022-09-20T14:19:06.798Z,16.59
2022-09-20T14:21:35.214Z,16.61
2022-09-20T14:24:07.643Z,16.59
2022-09-20T14:26:36.568Z,16.60
2022-09-20T14:29:33.659Z,16.59
2022-09-20T14:32:06.319Z,16.55
2022-09-20T14:34:37.724Z,16.51
2022-09-20T14:37:25.267Z,16.46
2022-09-20T14:39:57.299Z,16.46
2022-09-20T14:42:33.990Z,16.41
2022-09-20T14:45:01.885Z,16.36
2022-09-20T14:47:36.919Z,16.31
2022-09-20T14:50:05.283Z,16.33
2022-09-20T14:52:36.616Z,16.32
2022-09-20T14:55:18.195Z,16.31
2022-09-20T14:57:46.190Z,16.31
2022-09-20T15:00:15.105Z,16.29
2022-09-20T15:02:44.202Z,16.32
2022-09-20T15:05:36.687Z,16.34
2022-09-20T15:08:03.252Z,16.44
2022-09-20T15:10:29.765Z,16.57
2022-09-20T15:12:56.217Z,16.67
2022-09-20T15:15:22.736Z,16.76
2022-09-20T15:17:49.207Z,16.83
2022-09-20T15:20:24.195Z,16.86
2022-09-20T15:22:51.280Z,16.90
2022-09-20T15:25:21.207Z,16.83
2022-09-20T15:27:48.885Z,16.85
2022-09-20T15:30:17.640Z,16.81
2022-09-20T15:32:44.589Z,16.73
2022-09-20T15:35:12.127Z,16.62
2022-09-20T15:37:38.603Z,16.54
2022-09-20T15:40:06.657Z,16.45
2022-09-20T15:42:33.618Z,16.35
2022-09-20T15:45:00.104Z,16.27
2022-09-20T15:47:26.540Z,16.22
2022-09-20T15:49:53.000Z,16.18
2022-09-20T15:52:19.477Z,16.16
2022-09-20T15:54:45.981Z,16.10
2022-09-20T15:57:12.562Z,16.04
2022-09-20T15:59:39.025Z,15.96
2022-09-20T16:02:05.622Z,15.89
2022-09-20T16:04:32.189Z,15.84
2022-09-20T16:06:58.714Z,15.78
2022-09-20T16:09:25.188Z,15.73
2022-09-20T16:11:51.682Z,15.66
2022-09-20T16:14:18.160Z,15.60
2022-09-20T16:19:48.365Z,15.46
2022-09-20T16:22:15.212Z,15.39
2022-09-20T16:24:42.047Z,15.33
2022-09-20T16:27:09.696Z,15.31
2022-09-20T16:29:36.762Z,15.26
2022-09-20T16:32:04.528Z,15.21
2022-09-20T16:34:34.648Z,15.12
2022-09-20T16:37:07.230Z,15.02
2022-09-20T16:39:34.213Z,14.93
2022-09-20T16:42:03.388Z,14.84
2022-09-20T16:44:31.747Z,14.75
2022-09-20T16:46:58.727Z,14.65
2022-09-20T16:49:25.754Z,14.52
2022-09-20T16:51:52.905Z,14.41
2022-09-20T16:54:19.960Z,14.28
2022-09-20T16:56:48.729Z,14.21
2022-09-20T16:59:17.753Z,14.14
2022-09-20T17:01:45.433Z,14.05
2022-09-20T17:04:12.670Z,13.99
2022-09-20T17:06:39.625Z,13.93
2022-09-20T17:09:07.203Z,13.89
2022-09-20T17:11:36.921Z,13.87
2022-09-20T17:14:04.806Z,13.84
2022-09-20T17:16:34.703Z,13.82
2022-09-20T17:19:04.851Z,13.81
2022-09-20T17:21:33.354Z,13.81
2022-09-20T17:24:04.365Z,13.81
2022-09-20T17:26:33.228Z,13.81
2022-09-20T17:29:02.849Z,13.79
2022-09-20T17:32:03.032Z,13.79
2022-09-20T17:34:38.960Z,13.77
2022-09-20T17:37:08.362Z,13.69
2022-09-20T17:39:37.808Z,13.76
2022-09-20T17:42:14.619Z,13.74
2022-09-20T17:44:41.178Z,13.72
2022-09-20T17:47:07.680Z,13.70
2022-09-20T17:49:34.306Z,13.67
2022-09-20T17:52:01.020Z,13.64
2022-09-20T17:54:27.519Z,13.60
2022-09-20T17:56:54.378Z,13.58
2022-09-20T17:59:21.111Z,13.56
2022-09-20T18:01:50.079Z,13.54
2022-09-20T18:04:16.966Z,13.52
2022-09-20T18:06:48.833Z,13.50
2022-09-20T18:09:18.724Z,13.51
2022-09-20T18:11:47.709Z,13.49
2022-09-20T18:14:15.989Z,13.47
2022-09-20T18:16:42.931Z,13.45
2022-09-20T18:19:10.064Z,13.41
2022-09-20T18:21:38.297Z,13.40
2022-09-20T18:24:05.583Z,13.30
2022-09-20T18:26:32.329Z,13.36
2022-09-20T18:29:13.306Z,13.35
2022-09-20T18:31:52.731Z,13.36
2022-09-20T18:34:21.685Z,13.35
2022-09-20T18:36:52.143Z,13.34
2022-09-20T18:39:26.276Z,13.31
2022-09-20T18:41:53.484Z,13.30
2022-09-20T18:44:21.123Z,13.27
2022-09-20T18:46:48.542Z,13.24
2022-09-20T18:49:15.429Z,13.23
2022-09-20T18:51:43.021Z,13.21
2022-09-20T18:54:11.851Z,13.19
2022-09-20T18:56:43.851Z,13.19
2022-09-20T18:59:19.279Z,13.18
2022-09-20T19:01:52.080Z,13.16
2022-09-20T19:04:42.953Z,13.16
2022-09-20T19:07:27.414Z,13.13
2022-09-20T19:10:00.023Z,13.13
2022-09-20T19:12:37.511Z,13.12
2022-09-20T19:15:33.215Z,13.09
2022-09-20T19:18:26.705Z,13.07
2022-09-20T19:21:05.269Z,13.06
2022-09-20T19:24:03.056Z,13.03
2022-09-20T19:26:32.630Z,13.02
2022-09-20T19:29:00.634Z,13.03
2022-09-20T19:31:28.884Z,13.02
2022-09-20T19:33:57.693Z,13.02
2022-09-20T19:36:39.141Z,13.00
2022-09-20T19:39:31.885Z,12.98
2022-09-20T19:42:09.813Z,13.00
2022-09-20T19:44:39.252Z,12.98
2022-09-20T19:47:17.941Z,12.97
2022-09-20T19:49:54.201Z,12.96
2022-09-20T19:52:22.274Z,12.96
2022-09-20T19:54:50.538Z,12.97
2022-09-20T19:57:23.360Z,12.97
2022-09-20T19:59:50.800Z,12.98
2022-09-20T20:02:18.076Z,12.99
2022-09-20T20:04:44.887Z,12.99
2022-09-20T20:07:20.163Z,12.98
2022-09-20T20:10:17.582Z,12.97
2022-09-20T20:13:01.856Z,12.97
2022-09-20T20:15:37.767Z,12.96
2022-09-20T20:18:28.997Z,12.95
2022-09-20T20:20:56.560Z,12.97
2022-09-20T20:23:29.151Z,12.93
2022-09-20T20:26:04.911Z,12.94
2022-09-20T20:28:31.798Z,12.94
2022-09-20T20:31:00.405Z,12.93
2022-09-20T20:33:26.993Z,12.92
2022-09-20T20:35:59.209Z,12.94
2022-09-20T20:38:27.449Z,12.93
2022-09-20T20:41:04.730Z,12.84
2022-09-20T20:43:36.984Z,12.89
2022-09-20T20:46:05.434Z,12.91
2022-09-20T20:48:32.476Z,12.89
2022-09-20T20:51:20.271Z,12.84
2022-09-20T20:53:51.837Z,12.83
2022-09-20T20:56:27.465Z,12.81
2022-09-20T20:58:55.256Z,12.79
2022-09-20T21:01:24.429Z,12.71
2022-09-20T21:03:52.864Z,12.67
2022-09-20T21:06:21.206Z,12.58
2022-09-20T21:08:49.704Z,12.53
2022-09-20T21:11:30.661Z,12.45
2022-09-20T21:13:59.290Z,12.38
2022-09-20T21:16:28.368Z,12.29
2022-09-20T21:18:55.502Z,12.21
2022-09-20T21:21:30.601Z,12.13
2022-09-20T21:24:00.448Z,12.06
2022-09-20T21:26:28.922Z,11.98
2022-09-20T21:28:57.988Z,11.91
2022-09-20T21:31:25.983Z,11.84
2022-09-20T21:33:52.799Z,11.70
2022-09-20T21:36:22.213Z,11.70
2022-09-20T21:38:48.890Z,11.66
2022-09-20T21:41:20.688Z,11.59
2022-09-20T21:43:47.601Z,11.52
2022-09-20T21:46:16.658Z,11.44
2022-09-20T21:48:44.001Z,11.38
2022-09-20T21:51:13.645Z,11.32
2022-09-20T21:53:40.973Z,11.23
2022-09-20T21:56:10.482Z,11.17
2022-09-20T21:58:37.370Z,11.12
2022-09-20T22:01:09.573Z,11.07
2022-09-20T22:03:38.917Z,11.03
2022-09-20T22:06:12.846Z,10.99
2022-09-20T22:08:48.328Z,10.95
2022-09-20T22:11:16.031Z,10.91
2022-09-20T22:13:44.419Z,10.86
2022-09-20T22:16:13.872Z,10.83
2022-09-20T22:18:42.008Z,10.80
2022-09-20T22:21:10.279Z,10.68
2022-09-20T22:23:37.055Z,10.71
2022-09-20T22:26:09.430Z,10.69
2022-09-20T22:28:36.830Z,10.66
2022-09-20T22:31:12.126Z,10.62
2022-09-20T22:33:43.622Z,10.57
2022-09-20T22:36:12.574Z,10.53
2022-09-20T22:38:39.306Z,10.49
2022-09-20T22:41:06.197Z,10.47
2022-09-20T22:43:34.321Z,10.42
2022-09-20T22:46:04.788Z,10.29
2022-09-20T22:48:35.146Z,10.32
2022-09-20T22:51:03.957Z,10.29
2022-09-20T22:53:31.648Z,10.25
2022-09-20T22:56:06.794Z,10.19
2022-09-20T22:58:35.663Z,10.15
2022-09-20T23:01:12.039Z,10.12
2022-09-20T23:03:40.828Z,10.08
2022-09-20T23:06:19.424Z,10.05
2022-09-20T23:08:46.087Z,10.01
2022-09-20T23:11:13.437Z,9.96
2022-09-20T23:13:39.943Z,9.93
2022-09-20T23:16:20.216Z,9.90
2022-09-20T23:18:48.002Z,9.89
2022-09-20T23:21:15.681Z,9.87
2022-09-20T23:23:42.686Z,9.85
2022-09-20T23:26:15.399Z,9.83
2022-09-20T23:28:43.926Z,9.82
2022-09-20T23:31:17.374Z,9.80
2022-09-20T23:33:54.933Z,9.79
2022-09-20T23:36:22.986Z,9.79
2022-09-20T23:38:49.635Z,9.79
2022-09-20T23:41:18.714Z,9.78
2022-09-20T23:43:45.275Z,9.76
2022-09-20T23:46:13.795Z,9.75
2022-09-20T23:48:40.448Z,9.72
2022-09-20T23:51:08.045Z,9.68
2022-09-20T23:53:34.788Z,9.63
2022-09-20T23:56:01.964Z,9.60
2022-09-20T23:58:28.470Z,9.56
